sensor_id;sensor_type;location;lat;lon;timestamp;P1;durP1;ratioP1;P2;durP2;ratioP2
29466;SDS011;60968;37.490;-122.288;2022-10-31T00:00:39;9.83;;;6.57;;
29466;SDS011;60968;37.490;-122.288;2022-10-31T00:03:41;8.63;;;6.20;;
29466;SDS011;60968;37.490;-122.288;2022-10-31T00:06:42;11.23;;;7.13;;
29466;SDS011;60968;37.490;-122.288;2022-10-31T00:09:43;10.90;;;7.43;;
29466;SDS011;60968;37.490;-122.288;2022-10-31T00:12:44;9.17;;;6.40;;
29466;SDS011;60968;37.490;-122.288;2022-10-31T00:15:47;9.87;;;6.03;;
29466;SDS011;60968;37.490;-122.288;2022-10-31T00:18:56;8.97;;;6.03;;
29466;SDS011;60968;37.490;-122.288;2022-10-31T00:22:00;11.60;;;6.13;;
29466;SDS011;60968;37.490;-122.288;2022-10-31T00:25:00;7.63;;;5.13;;
29466;SDS011;60968;37.490;-122.288;2022-10-31T00:28:02;7.10;;;4.73;;
29466;SDS011;60968;37.490;-122.288;2022-10-31T00:31:06;10.43;;;4.57;;
29466;SDS011;60968;37.490;-122.288;2022-10-31T00:34:09;6.77;;;4.30;;
29466;SDS011;60968;37.490;-122.288;2022-10-31T00:37:09;6.50;;;4.37;;
29466;SDS011;60968;37.490;-122.288;2022-10-31T00:40:10;7.43;;;4.50;;
29466;SDS011;60968;37.490;-122.288;2022-10-31T00:43:14;7.27;;;4.53;;
29466;SDS011;60968;37.490;-122.288;2022-10-31T00:46:15;7.60;;;5.07;;
29466;SDS011;60968;37.490;-122.288;2022-10-31T00:49:16;7.87;;;5.20;;
29466;SDS011;60968;37.490;-122.288;2022-10-31T00:52:17;8.97;;;5.70;;
29466;SDS011;60968;37.490;-122.288;2022-10-31T00:55:18;8.47;;;6.00;;
29466;SDS011;60968;37.490;-122.288;2022-10-31T00:58:20;9.20;;;5.60;;
29466;SDS011;60968;37.490;-122.288;2022-10-31T01:01:23;10.47;;;6.13;;
29466;SDS011;60968;37.490;-122.288;2022-10-31T01:04:23;12.17;;;5.73;;
29466;SDS011;60968;37.490;-122.288;2022-10-31T01:07:25;9.03;;;5.33;;
29466;SDS011;60968;37.490;-122.288;2022-10-31T01:10:27;8.87;;;5.40;;
29466;SDS011;60968;37.490;-122.288;2022-10-31T01:13:29;8.93;;;4.60;;
29466;SDS011;60968;37.490;-122.288;2022-10-31T01:16:31;6.70;;;4.30;;
29466;SDS011;60968;37.490;-122.288;2022-10-31T01:19:32;9.33;;;3.90;;
29466;SDS011;60968;37.490;-122.288;2022-10-31T01:22:34;6.23;;;4.00;;
29466;SDS011;60968;37.490;-122.288;2022-10-31T01:25:35;6.97;;;4.07;;
29466;SDS011;60968;37.490;-122.288;2022-10-31T01:28:37;5.77;;;3.70;;
29466;SDS011;60968;37.490;-122.288;2022-10-31T01:31:43;6.93;;;4.47;;
29466;SDS011;60968;37.490;-122.288;2022-10-31T01:34:44;6.37;;;4.50;;
29466;SDS011;60968;37.490;-122.288;2022-10-31T01:37:45;6.40;;;4.37;;
29466;SDS011;60968;37.490;-122.288;2022-10-31T01:40:49;8.53;;;4.63;;
29466;SDS011;60968;37.490;-122.288;2022-10-31T01:44:00;7.57;;;4.60;;
29466;SDS011;60968;37.490;-122.288;2022-10-31T01:47:07;9.77;;;5.47;;
29466;SDS011;60968;37.490;-122.288;2022-10-31T01:50:21;9.33;;;5.90;;
29466;SDS011;60968;37.490;-122.288;2022-10-31T01:53:25;8.17;;;5.50;;
29466;SDS011;60968;37.490;-122.288;2022-10-31T01:56:29;8.53;;;5.40;;
29466;SDS011;60968;37.490;-122.288;2022-10-31T01:59:33;10.13;;;6.13;;
29466;SDS011;60968;37.490;-122.288;2022-10-31T02:02:39;9.33;;;5.43;;
29466;SDS011;60968;37.490;-122.288;2022-10-31T02:05:44;8.83;;;4.73;;
29466;SDS011;60968;37.490;-122.288;2022-10-31T02:08:47;9.20;;;4.90;;
29466;SDS011;60968;37.490;-122.288;2022-10-31T02:11:48;6.97;;;5.17;;
29466;SDS011;60968;37.490;-122.288;2022-10-31T02:14:52;9.20;;;4.63;;
29466;SDS011;60968;37.490;-122.288;2022-10-31T02:18:01;9.97;;;5.50;;
29466;SDS011;60968;37.490;-122.288;2022-10-31T02:27:54;9.23;;;4.73;;
29466;SDS011;60968;37.490;-122.288;2022-10-31T02:34:57;5.80;;;4.23;;
29466;SDS011;60968;37.490;-122.288;2022-10-31T02:41:40;7.23;;;4.30;;
29466;SDS011;60968;37.490;-122.288;2022-10-31T02:48:31;9.63;;;4.80;;
29466;SDS011;60968;37.490;-122.288;2022-10-31T02:51:38;6.37;;;4.47;;
29466;SDS011;60968;37.490;-122.288;2022-10-31T02:54:39;8.20;;;5.30;;
29466;SDS011;60968;37.490;-122.288;2022-10-31T02:57:40;9.83;;;5.33;;
29466;SDS011;60968;37.490;-122.288;2022-10-31T03:07:57;9.33;;;5.23;;
29466;SDS011;60968;37.490;-122.288;2022-10-31T03:11:16;8.33;;;5.13;;
29466;SDS011;60968;37.490;-122.288;2022-10-31T03:14:48;8.90;;;5.10;;
29466;SDS011;60968;37.490;-122.288;2022-10-31T03:17:56;8.40;;;4.80;;
29466;SDS011;60968;37.490;-122.288;2022-10-31T03:21:17;7.53;;;4.70;;
29466;SDS011;60968;37.490;-122.288;2022-10-31T03:24:37;7.73;;;4.60;;
29466;SDS011;60968;37.490;-122.288;2022-10-31T03:27:40;7.70;;;4.77;;
29466;SDS011;60968;37.490;-122.288;2022-10-31T03:30:44;6.40;;;4.20;;
29466;SDS011;60968;37.490;-122.288;2022-10-31T03:33:47;8.23;;;4.60;;
29466;SDS011;60968;37.490;-122.288;2022-10-31T03:36:51;7.10;;;4.77;;
29466;SDS011;60968;37.490;-122.288;2022-10-31T03:39:56;9.67;;;4.90;;
29466;SDS011;60968;37.490;-122.288;2022-10-31T03:43:00;8.70;;;5.37;;
29466;SDS011;60968;37.490;-122.288;2022-10-31T03:46:07;8.80;;;4.83;;
29466;SDS011;60968;37.490;-122.288;2022-10-31T03:49:11;7.13;;;4.77;;
29466;SDS011;60968;37.490;-122.288;2022-10-31T03:52:16;7.73;;;4.83;;
29466;SDS011;60968;37.490;-122.288;2022-10-31T03:55:42;8.10;;;4.80;;
29466;SDS011;60968;37.490;-122.288;2022-10-31T03:59:49;12.60;;;5.47;;
29466;SDS011;60968;37.490;-122.288;2022-10-31T04:02:38;9.20;;;5.80;;
29466;SDS011;60968;37.490;-122.288;2022-10-31T04:05:43;10.53;;;5.60;;
29466;SDS011;60968;37.490;-122.288;2022-10-31T04:08:51;12.67;;;6.47;;
29466;SDS011;60968;37.490;-122.288;2022-10-31T04:11:57;11.03;;;6.70;;
29466;SDS011;60968;37.490;-122.288;2022-10-31T04:15:03;13.90;;;8.00;;
29466;SDS011;60968;37.490;-122.288;2022-10-31T04:18:07;10.33;;;6.83;;
29466;SDS011;60968;37.490;-122.288;2022-10-31T04:21:11;16.50;;;8.20;;
29466;SDS011;60968;37.490;-122.288;2022-10-31T04:24:12;13.67;;;7.80;;
29466;SDS011;60968;37.490;-122.288;2022-10-31T04:27:13;13.67;;;8.03;;
29466;SDS011;60968;37.490;-122.288;2022-10-31T04:30:14;15.10;;;7.87;;
29466;SDS011;60968;37.490;-122.288;2022-10-31T04:33:15;13.13;;;7.37;;
29466;SDS011;60968;37.490;-122.288;2022-10-31T04:36:17;11.13;;;7.20;;
29466;SDS011;60968;37.490;-122.288;2022-10-31T04:39:18;13.80;;;8.13;;
29466;SDS011;60968;37.490;-122.288;2022-10-31T04:42:19;15.10;;;8.97;;
29466;SDS011;60968;37.490;-122.288;2022-10-31T04:45:20;15.63;;;8.70;;
29466;SDS011;60968;37.490;-122.288;2022-10-31T04:48:24;13.63;;;8.63;;
29466;SDS011;60968;37.490;-122.288;2022-10-31T04:51:25;18.57;;;9.17;;
29466;SDS011;60968;37.490;-122.288;2022-10-31T04:54:27;16.40;;;9.43;;
29466;SDS011;60968;37.490;-122.288;2022-10-31T04:57:29;19.23;;;10.00;;
29466;SDS011;60968;37.490;-122.288;2022-10-31T05:00:31;17.53;;;9.77;;
29466;SDS011;60968;37.490;-122.288;2022-10-31T05:03:32;24.53;;;11.03;;
29466;SDS011;60968;37.490;-122.288;2022-10-31T05:06:32;20.80;;;10.80;;
29466;SDS011;60968;37.490;-122.288;2022-10-31T05:09:34;18.10;;;10.33;;
29466;SDS011;60968;37.490;-122.288;2022-10-31T05:12:35;14.57;;;9.20;;
29466;SDS011;60968;37.490;-122.288;2022-10-31T05:15:37;17.50;;;10.40;;
29466;SDS011;60968;37.490;-122.288;2022-10-31T05:18:40;20.50;;;11.43;;
29466;SDS011;60968;37.490;-122.288;2022-10-31T05:21:40;22.73;;;11.10;;
29466;SDS011;60968;37.490;-122.288;2022-10-31T05:24:43;15.90;;;9.27;;
29466;SDS011;60968;37.490;-122.288;2022-10-31T05:27:46;18.80;;;10.13;;
29466;SDS011;60968;37.490;-122.288;2022-10-31T05:30:50;19.90;;;10.73;;
29466;SDS011;60968;37.490;-122.288;2022-10-31T05:33:50;17.47;;;9.90;;
29466;SDS011;60968;37.490;-122.288;2022-10-31T05:36:52;17.67;;;9.00;;
29466;SDS011;60968;37.490;-122.288;2022-10-31T05:39:53;21.10;;;10.30;;
29466;SDS011;60968;37.490;-122.288;2022-10-31T05:42:54;16.77;;;10.43;;
29466;SDS011;60968;37.490;-122.288;2022-10-31T05:45:58;18.90;;;10.77;;
29466;SDS011;60968;37.490;-122.288;2022-10-31T05:49:01;21.87;;;10.93;;
29466;SDS011;60968;37.490;-122.288;2022-10-31T05:52:02;15.70;;;10.43;;
29466;SDS011;60968;37.490;-122.288;2022-10-31T05:55:03;19.33;;;9.80;;
29466;SDS011;60968;37.490;-122.288;2022-10-31T05:58:04;16.50;;;10.00;;
29466;SDS011;60968;37.490;-122.288;2022-10-31T06:01:05;17.60;;;10.70;;
29466;SDS011;60968;37.490;-122.288;2022-10-31T06:04:06;22.60;;;10.03;;
29466;SDS011;60968;37.490;-122.288;2022-10-31T06:07:08;18.20;;;9.87;;
29466;SDS011;60968;37.490;-122.288;2022-10-31T06:10:10;20.37;;;9.77;;
29466;SDS011;60968;37.490;-122.288;2022-10-31T06:13:10;18.60;;;9.97;;
29466;SDS011;60968;37.490;-122.288;2022-10-31T06:16:11;17.37;;;9.53;;
29466;SDS011;60968;37.490;-122.288;2022-10-31T06:19:13;21.27;;;9.93;;
29466;SDS011;60968;37.490;-122.288;2022-10-31T06:22:13;16.90;;;9.87;;
29466;SDS011;60968;37.490;-122.288;2022-10-31T06:25:14;20.10;;;9.07;;
29466;SDS011;60968;37.490;-122.288;2022-10-31T06:28:15;21.10;;;9.80;;
29466;SDS011;60968;37.490;-122.288;2022-10-31T06:31:17;19.97;;;9.63;;
29466;SDS011;60968;37.490;-122.288;2022-10-31T06:34:21;17.20;;;9.47;;
29466;SDS011;60968;37.490;-122.288;2022-10-31T06:37:22;16.07;;;8.67;;
29466;SDS011;60968;37.490;-122.288;2022-10-31T06:40:23;18.63;;;9.77;;
29466;SDS011;60968;37.490;-122.288;2022-10-31T06:43:24;16.17;;;8.57;;
29466;SDS011;60968;37.490;-122.288;2022-10-31T06:46:27;17.23;;;10.20;;
29466;SDS011;60968;37.490;-122.288;2022-10-31T06:49:28;19.27;;;9.73;;
29466;SDS011;60968;37.490;-122.288;2022-10-31T06:52:29;19.00;;;7.77;;
29466;SDS011;60968;37.490;-122.288;2022-10-31T06:55:30;17.47;;;7.37;;
29466;SDS011;60968;37.490;-122.288;2022-10-31T06:58:32;25.73;;;7.13;;
29466;SDS011;60968;37.490;-122.288;2022-10-31T07:01:33;19.10;;;6.63;;
29466;SDS011;60968;37.490;-122.288;2022-10-31T07:04:34;15.90;;;5.47;;
29466;SDS011;60968;37.490;-122.288;2022-10-31T07:07:35;21.40;;;6.17;;
29466;SDS011;60968;37.490;-122.288;2022-10-31T07:10:36;14.17;;;6.40;;
29466;SDS011;60968;37.490;-122.288;2022-10-31T07:13:38;18.47;;;7.27;;
29466;SDS011;60968;37.490;-122.288;2022-10-31T07:16:40;19.83;;;7.43;;
29466;SDS011;60968;37.490;-122.288;2022-10-31T07:19:42;18.17;;;7.70;;
29466;SDS011;60968;37.490;-122.288;2022-10-31T07:22:43;17.43;;;7.97;;
29466;SDS011;60968;37.490;-122.288;2022-10-31T07:25:44;22.73;;;7.33;;
29466;SDS011;60968;37.490;-122.288;2022-10-31T07:28:46;18.07;;;6.20;;
29466;SDS011;60968;37.490;-122.288;2022-10-31T07:31:48;27.37;;;6.87;;
29466;SDS011;60968;37.490;-122.288;2022-10-31T07:34:51;19.03;;;6.17;;
29466;SDS011;60968;37.490;-122.288;2022-10-31T07:37:53;20.90;;;6.77;;
29466;SDS011;60968;37.490;-122.288;2022-10-31T07:40:54;20.43;;;5.97;;
29466;SDS011;60968;37.490;-122.288;2022-10-31T07:43:57;15.73;;;5.43;;
29466;SDS011;60968;37.490;-122.288;2022-10-31T07:46:58;20.20;;;6.67;;
29466;SDS011;60968;37.490;-122.288;2022-10-31T07:49:58;20.10;;;7.03;;
29466;SDS011;60968;37.490;-122.288;2022-10-31T07:53:06;21.20;;;7.03;;
29466;SDS011;60968;37.490;-122.288;2022-10-31T07:56:14;21.53;;;8.30;;
29466;SDS011;60968;37.490;-122.288;2022-10-31T07:59:16;20.00;;;8.03;;
29466;SDS011;60968;37.490;-122.288;2022-10-31T08:02:17;20.53;;;8.10;;
29466;SDS011;60968;37.490;-122.288;2022-10-31T08:05:18;14.87;;;7.87;;
29466;SDS011;60968;37.490;-122.288;2022-10-31T08:08:19;24.93;;;9.03;;
29466;SDS011;60968;37.490;-122.288;2022-10-31T08:11:20;25.87;;;10.20;;
29466;SDS011;60968;37.490;-122.288;2022-10-31T08:14:21;25.60;;;10.67;;
29466;SDS011;60968;37.490;-122.288;2022-10-31T08:17:22;23.57;;;10.60;;
29466;SDS011;60968;37.490;-122.288;2022-10-31T08:20:22;24.40;;;9.93;;
29466;SDS011;60968;37.490;-122.288;2022-10-31T08:23:24;23.93;;;9.23;;
29466;SDS011;60968;37.490;-122.288;2022-10-31T08:26:24;22.73;;;10.13;;
29466;SDS011;60968;37.490;-122.288;2022-10-31T08:29:25;18.53;;;9.10;;
29466;SDS011;60968;37.490;-122.288;2022-10-31T08:32:26;21.83;;;10.40;;
29466;SDS011;60968;37.490;-122.288;2022-10-31T08:35:27;21.07;;;9.50;;
29466;SDS011;60968;37.490;-122.288;2022-10-31T08:38:29;23.10;;;10.27;;
29466;SDS011;60968;37.490;-122.288;2022-10-31T08:41:30;23.10;;;10.30;;
29466;SDS011;60968;37.490;-122.288;2022-10-31T08:44:32;28.73;;;11.03;;
29466;SDS011;60968;37.490;-122.288;2022-10-31T08:47:34;26.00;;;9.70;;
29466;SDS011;60968;37.490;-122.288;2022-10-31T08:50:35;24.57;;;9.70;;
29466;SDS011;60968;37.490;-122.288;2022-10-31T08:53:36;22.93;;;10.70;;
29466;SDS011;60968;37.490;-122.288;2022-10-31T08:56:40;23.13;;;10.20;;
29466;SDS011;60968;37.490;-122.288;2022-10-31T08:59:42;21.43;;;10.83;;
29466;SDS011;60968;37.490;-122.288;2022-10-31T09:02:43;24.83;;;10.30;;
29466;SDS011;60968;37.490;-122.288;2022-10-31T09:05:46;27.97;;;11.03;;
29466;SDS011;60968;37.490;-122.288;2022-10-31T09:08:48;23.43;;;10.60;;
29466;SDS011;60968;37.490;-122.288;2022-10-31T09:11:51;24.00;;;9.90;;
29466;SDS011;60968;37.490;-122.288;2022-10-31T09:14:51;32.10;;;10.73;;
29466;SDS011;60968;37.490;-122.288;2022-10-31T09:17:52;22.13;;;10.37;;
29466;SDS011;60968;37.490;-122.288;2022-10-31T09:20:56;34.07;;;11.20;;
29466;SDS011;60968;37.490;-122.288;2022-10-31T09:23:58;20.37;;;9.50;;
29466;SDS011;60968;37.490;-122.288;2022-10-31T09:27:00;24.17;;;9.80;;
29466;SDS011;60968;37.490;-122.288;2022-10-31T09:30:01;26.17;;;10.40;;
29466;SDS011;60968;37.490;-122.288;2022-10-31T09:33:08;24.03;;;10.50;;
29466;SDS011;60968;37.490;-122.288;2022-10-31T09:36:10;25.57;;;10.10;;
29466;SDS011;60968;37.490;-122.288;2022-10-31T09:39:11;29.60;;;10.23;;
29466;SDS011;60968;37.490;-122.288;2022-10-31T09:52:28;28.67;;;10.57;;
29466;SDS011;60968;37.490;-122.288;2022-10-31T09:55:37;23.97;;;9.57;;
29466;SDS011;60968;37.490;-122.288;2022-10-31T09:58:44;22.37;;;8.97;;
29466;SDS011;60968;37.490;-122.288;2022-10-31T10:08:09;26.10;;;9.47;;
29466;SDS011;60968;37.490;-122.288;2022-10-31T10:27:56;27.03;;;9.97;;
29466;SDS011;60968;37.490;-122.288;2022-10-31T10:31:19;35.63;;;10.77;;
29466;SDS011;60968;37.490;-122.288;2022-10-31T10:34:29;22.23;;;9.13;;
29466;SDS011;60968;37.490;-122.288;2022-10-31T10:37:37;28.87;;;9.60;;
29466;SDS011;60968;37.490;-122.288;2022-10-31T10:40:42;28.87;;;9.23;;
29466;SDS011;60968;37.490;-122.288;2022-10-31T10:43:44;31.00;;;9.60;;
29466;SDS011;60968;37.490;-122.288;2022-10-31T10:46:51;31.83;;;10.43;;
29466;SDS011;60968;37.490;-122.288;2022-10-31T10:50:00;31.67;;;9.40;;
29466;SDS011;60968;37.490;-122.288;2022-10-31T10:56:30;28.97;;;9.93;;
29466;SDS011;60968;37.490;-122.288;2022-10-31T10:59:54;33.67;;;9.47;;
29466;SDS011;60968;37.490;-122.288;2022-10-31T11:02:55;28.80;;;10.00;;
29466;SDS011;60968;37.490;-122.288;2022-10-31T11:05:58;31.80;;;9.30;;
29466;SDS011;60968;37.490;-122.288;2022-10-31T11:09:10;38.13;;;9.23;;
29466;SDS011;60968;37.490;-122.288;2022-10-31T11:12:17;39.00;;;10.03;;
29466;SDS011;60968;37.490;-122.288;2022-10-31T11:15:35;35.10;;;10.30;;
29466;SDS011;60968;37.490;-122.288;2022-10-31T11:18:48;20.47;;;8.20;;
29466;SDS011;60968;37.490;-122.288;2022-10-31T11:21:49;20.10;;;7.97;;
29466;SDS011;60968;37.490;-122.288;2022-10-31T11:24:50;22.40;;;8.57;;
29466;SDS011;60968;37.490;-122.288;2022-10-31T11:28:04;30.50;;;9.73;;
29466;SDS011;60968;37.490;-122.288;2022-10-31T11:31:11;27.63;;;8.33;;
29466;SDS011;60968;37.490;-122.288;2022-10-31T11:34:18;18.87;;;7.03;;
29466;SDS011;60968;37.490;-122.288;2022-10-31T11:37:39;21.37;;;7.17;;
29466;SDS011;60968;37.490;-122.288;2022-10-31T11:40:51;25.60;;;7.53;;
29466;SDS011;60968;37.490;-122.288;2022-10-31T11:47:04;25.57;;;7.43;;
29466;SDS011;60968;37.490;-122.288;2022-10-31T11:50:09;18.37;;;7.30;;
29466;SDS011;60968;37.490;-122.288;2022-10-31T11:53:32;20.63;;;7.13;;
29466;SDS011;60968;37.490;-122.288;2022-10-31T11:56:38;18.80;;;6.43;;
29466;SDS011;60968;37.490;-122.288;2022-10-31T11:59:50;22.03;;;7.70;;
29466;SDS011;60968;37.490;-122.288;2022-10-31T12:03:04;20.70;;;6.30;;
29466;SDS011;60968;37.490;-122.288;2022-10-31T12:09:43;27.60;;;8.13;;
29466;SDS011;60968;37.490;-122.288;2022-10-31T12:16:16;26.10;;;6.83;;
29466;SDS011;60968;37.490;-122.288;2022-10-31T12:19:42;22.67;;;7.20;;
29466;SDS011;60968;37.490;-122.288;2022-10-31T12:32:52;22.83;;;6.70;;
29466;SDS011;60968;37.490;-122.288;2022-10-31T12:46:17;19.90;;;7.47;;
29466;SDS011;60968;37.490;-122.288;2022-10-31T12:49:42;16.43;;;6.13;;
29466;SDS011;60968;37.490;-122.288;2022-10-31T12:59:47;17.37;;;6.50;;
29466;SDS011;60968;37.490;-122.288;2022-10-31T13:06:40;19.53;;;6.40;;
29466;SDS011;60968;37.490;-122.288;2022-10-31T13:10:07;20.23;;;7.00;;
29466;SDS011;60968;37.490;-122.288;2022-10-31T13:13:18;17.47;;;5.93;;
29466;SDS011;60968;37.490;-122.288;2022-10-31T13:16:35;19.10;;;6.43;;
29466;SDS011;60968;37.490;-122.288;2022-10-31T13:19:40;25.87;;;7.23;;
29466;SDS011;60968;37.490;-122.288;2022-10-31T13:22:46;15.47;;;6.77;;
29466;SDS011;60968;37.490;-122.288;2022-10-31T13:25:54;20.60;;;7.43;;
29466;SDS011;60968;37.490;-122.288;2022-10-31T13:29:05;23.10;;;8.30;;
29466;SDS011;60968;37.490;-122.288;2022-10-31T13:32:15;31.60;;;8.80;;
29466;SDS011;60968;37.490;-122.288;2022-10-31T13:38:37;25.60;;;7.50;;
29466;SDS011;60968;37.490;-122.288;2022-10-31T13:41:50;18.73;;;7.57;;
29466;SDS011;60968;37.490;-122.288;2022-10-31T13:44:55;21.13;;;7.03;;
29466;SDS011;60968;37.490;-122.288;2022-10-31T13:51:26;23.90;;;8.37;;
29466;SDS011;60968;37.490;-122.288;2022-10-31T13:54:32;22.83;;;7.83;;
29466;SDS011;60968;37.490;-122.288;2022-10-31T13:57:37;22.60;;;8.53;;
29466;SDS011;60968;37.490;-122.288;2022-10-31T14:00:41;31.17;;;8.30;;
29466;SDS011;60968;37.490;-122.288;2022-10-31T14:03:44;25.67;;;8.97;;
29466;SDS011;60968;37.490;-122.288;2022-10-31T14:06:51;25.57;;;8.43;;
29466;SDS011;60968;37.490;-122.288;2022-10-31T14:09:59;21.13;;;8.67;;
29466;SDS011;60968;37.490;-122.288;2022-10-31T14:13:34;21.17;;;9.33;;
29466;SDS011;60968;37.490;-122.288;2022-10-31T14:16:39;33.10;;;9.37;;
29466;SDS011;60968;37.490;-122.288;2022-10-31T14:19:55;25.57;;;9.40;;
29466;SDS011;60968;37.490;-122.288;2022-10-31T14:23:09;32.43;;;9.23;;
29466;SDS011;60968;37.490;-122.288;2022-10-31T14:29:28;23.80;;;8.17;;
29466;SDS011;60968;37.490;-122.288;2022-10-31T14:32:32;22.80;;;8.10;;
29466;SDS011;60968;37.490;-122.288;2022-10-31T14:36:17;27.63;;;9.10;;
29466;SDS011;60968;37.490;-122.288;2022-10-31T14:39:24;20.00;;;7.23;;
29466;SDS011;60968;37.490;-122.288;2022-10-31T14:52:56;25.93;;;8.57;;
29466;SDS011;60968;37.490;-122.288;2022-10-31T14:56:00;26.43;;;9.43;;
29466;SDS011;60968;37.490;-122.288;2022-10-31T14:59:03;22.27;;;8.40;;
29466;SDS011;60968;37.490;-122.288;2022-10-31T15:02:14;30.93;;;9.33;;
29466;SDS011;60968;37.490;-122.288;2022-10-31T15:05:33;24.03;;;8.97;;
29466;SDS011;60968;37.490;-122.288;2022-10-31T15:08:45;22.57;;;7.87;;
29466;SDS011;60968;37.490;-122.288;2022-10-31T15:11:47;25.77;;;8.17;;
29466;SDS011;60968;37.490;-122.288;2022-10-31T15:14:49;22.03;;;8.03;;
29466;SDS011;60968;37.490;-122.288;2022-10-31T15:17:54;23.07;;;8.23;;
29466;SDS011;60968;37.490;-122.288;2022-10-31T15:20:57;32.07;;;9.43;;
29466;SDS011;60968;37.490;-122.288;2022-10-31T15:23:58;23.57;;;8.07;;
29466;SDS011;60968;37.490;-122.288;2022-10-31T15:27:03;23.80;;;8.60;;
29466;SDS011;60968;37.490;-122.288;2022-10-31T15:30:15;18.53;;;7.97;;
29466;SDS011;60968;37.490;-122.288;2022-10-31T15:33:40;22.30;;;8.50;;
29466;SDS011;60968;37.490;-122.288;2022-10-31T15:36:43;18.63;;;8.03;;
29466;SDS011;60968;37.490;-122.288;2022-10-31T15:39:51;22.50;;;8.10;;
29466;SDS011;60968;37.490;-122.288;2022-10-31T15:42:57;19.10;;;8.13;;
29466;SDS011;60968;37.490;-122.288;2022-10-31T15:46:07;30.57;;;9.17;;
29466;SDS011;60968;37.490;-122.288;2022-10-31T15:49:17;26.50;;;8.60;;
29466;SDS011;60968;37.490;-122.288;2022-10-31T15:52:44;32.30;;;10.33;;
29466;SDS011;60968;37.490;-122.288;2022-10-31T15:55:56;24.00;;;9.30;;
29466;SDS011;60968;37.490;-122.288;2022-10-31T15:59:00;29.90;;;9.23;;
29466;SDS011;60968;37.490;-122.288;2022-10-31T16:02:07;25.10;;;9.50;;
29466;SDS011;60968;37.490;-122.288;2022-10-31T16:05:14;23.53;;;8.87;;
29466;SDS011;60968;37.490;-122.288;2022-10-31T16:11:33;27.03;;;8.83;;
29466;SDS011;60968;37.490;-122.288;2022-10-31T16:14:38;26.53;;;9.17;;
29466;SDS011;60968;37.490;-122.288;2022-10-31T16:17:42;30.10;;;9.13;;
29466;SDS011;60968;37.490;-122.288;2022-10-31T16:20:49;22.60;;;9.23;;
29466;SDS011;60968;37.490;-122.288;2022-10-31T16:23:53;23.63;;;9.17;;
29466;SDS011;60968;37.490;-122.288;2022-10-31T16:27:05;22.47;;;7.93;;
29466;SDS011;60968;37.490;-122.288;2022-10-31T16:33:39;25.53;;;8.50;;
29466;SDS011;60968;37.490;-122.288;2022-10-31T16:36:41;21.83;;;8.50;;
29466;SDS011;60968;37.490;-122.288;2022-10-31T16:39:42;27.50;;;7.87;;
29466;SDS011;60968;37.490;-122.288;2022-10-31T16:42:44;26.87;;;7.80;;
29466;SDS011;60968;37.490;-122.288;2022-10-31T16:45:48;20.57;;;7.87;;
29466;SDS011;60968;37.490;-122.288;2022-10-31T16:48:51;24.03;;;8.07;;
29466;SDS011;60968;37.490;-122.288;2022-10-31T16:51:52;26.57;;;8.50;;
29466;SDS011;60968;37.490;-122.288;2022-10-31T16:54:53;33.70;;;8.43;;
29466;SDS011;60968;37.490;-122.288;2022-10-31T16:57:55;30.27;;;7.63;;
29466;SDS011;60968;37.490;-122.288;2022-10-31T17:00:57;24.60;;;7.60;;
29466;SDS011;60968;37.490;-122.288;2022-10-31T17:04:01;28.67;;;7.90;;
29466;SDS011;60968;37.490;-122.288;2022-10-31T17:07:02;28.03;;;7.43;;
29466;SDS011;60968;37.490;-122.288;2022-10-31T17:10:06;22.00;;;6.77;;
29466;SDS011;60968;37.490;-122.288;2022-10-31T17:13:10;26.27;;;6.67;;
29466;SDS011;60968;37.490;-122.288;2022-10-31T17:16:16;27.17;;;7.07;;
29466;SDS011;60968;37.490;-122.288;2022-10-31T17:19:18;26.57;;;6.63;;
29466;SDS011;60968;37.490;-122.288;2022-10-31T17:22:20;25.90;;;6.73;;
29466;SDS011;60968;37.490;-122.288;2022-10-31T17:25:23;23.30;;;6.50;;
29466;SDS011;60968;37.490;-122.288;2022-10-31T17:28:26;23.00;;;7.00;;
29466;SDS011;60968;37.490;-122.288;2022-10-31T17:31:28;24.40;;;6.43;;
29466;SDS011;60968;37.490;-122.288;2022-10-31T17:34:30;28.97;;;8.07;;
29466;SDS011;60968;37.490;-122.288;2022-10-31T17:37:33;22.40;;;7.10;;
29466;SDS011;60968;37.490;-122.288;2022-10-31T17:40:35;19.83;;;7.13;;
29466;SDS011;60968;37.490;-122.288;2022-10-31T17:43:37;20.27;;;7.17;;
29466;SDS011;60968;37.490;-122.288;2022-10-31T17:46:39;24.00;;;6.07;;
29466;SDS011;60968;37.490;-122.288;2022-10-31T17:49:41;23.57;;;7.23;;
29466;SDS011;60968;37.490;-122.288;2022-10-31T17:52:41;23.73;;;5.90;;
29466;SDS011;60968;37.490;-122.288;2022-10-31T17:55:42;21.07;;;6.53;;
29466;SDS011;60968;37.490;-122.288;2022-10-31T17:58:44;18.97;;;5.63;;
29466;SDS011;60968;37.490;-122.288;2022-10-31T18:01:45;25.70;;;6.93;;
29466;SDS011;60968;37.490;-122.288;2022-10-31T18:04:46;21.03;;;7.53;;
29466;SDS011;60968;37.490;-122.288;2022-10-31T18:07:50;21.43;;;6.63;;
29466;SDS011;60968;37.490;-122.288;2022-10-31T18:10:50;28.23;;;6.40;;
29466;SDS011;60968;37.490;-122.288;2022-10-31T18:13:55;18.07;;;6.70;;
29466;SDS011;60968;37.490;-122.288;2022-10-31T18:16:57;23.10;;;6.97;;
29466;SDS011;60968;37.490;-122.288;2022-10-31T18:19:58;18.57;;;6.10;;
29466;SDS011;60968;37.490;-122.288;2022-10-31T18:22:59;17.07;;;6.10;;
29466;SDS011;60968;37.490;-122.288;2022-10-31T18:26:02;19.73;;;6.83;;
29466;SDS011;60968;37.490;-122.288;2022-10-31T18:29:06;21.70;;;6.57;;
29466;SDS011;60968;37.490;-122.288;2022-10-31T18:32:07;24.70;;;6.97;;
29466;SDS011;60968;37.490;-122.288;2022-10-31T18:35:07;27.47;;;7.20;;
29466;SDS011;60968;37.490;-122.288;2022-10-31T18:38:08;17.97;;;6.50;;
29466;SDS011;60968;37.490;-122.288;2022-10-31T18:41:09;24.43;;;7.47;;
29466;SDS011;60968;37.490;-122.288;2022-10-31T18:44:13;23.10;;;6.87;;
29466;SDS011;60968;37.490;-122.288;2022-10-31T18:47:15;25.73;;;7.27;;
29466;SDS011;60968;37.490;-122.288;2022-10-31T18:50:17;21.43;;;6.90;;
29466;SDS011;60968;37.490;-122.288;2022-10-31T18:53:19;22.23;;;7.73;;
29466;SDS011;60968;37.490;-122.288;2022-10-31T18:56:20;21.03;;;7.30;;
29466;SDS011;60968;37.490;-122.288;2022-10-31T18:59:22;21.43;;;7.93;;
29466;SDS011;60968;37.490;-122.288;2022-10-31T19:02:23;19.03;;;7.13;;
29466;SDS011;60968;37.490;-122.288;2022-10-31T19:05:24;29.00;;;8.23;;
29466;SDS011;60968;37.490;-122.288;2022-10-31T19:08:26;21.43;;;8.17;;
29466;SDS011;60968;37.490;-122.288;2022-10-31T19:11:26;26.50;;;9.30;;
29466;SDS011;60968;37.490;-122.288;2022-10-31T19:14:27;20.20;;;7.93;;
29466;SDS011;60968;37.490;-122.288;2022-10-31T19:17:28;26.60;;;9.10;;
29466;SDS011;60968;37.490;-122.288;2022-10-31T19:20:29;33.30;;;9.10;;
29466;SDS011;60968;37.490;-122.288;2022-10-31T19:23:30;30.20;;;9.27;;
29466;SDS011;60968;37.490;-122.288;2022-10-31T19:26:33;25.07;;;9.67;;
29466;SDS011;60968;37.490;-122.288;2022-10-31T19:29:34;29.10;;;10.27;;
29466;SDS011;60968;37.490;-122.288;2022-10-31T19:32:35;35.70;;;10.23;;
29466;SDS011;60968;37.490;-122.288;2022-10-31T19:35:36;31.27;;;10.07;;
29466;SDS011;60968;37.490;-122.288;2022-10-31T19:38:38;23.70;;;9.33;;